Green Isle, Minnesota
Current Conditions -  °F | °C
As of 5:14 AM on Monday 20 Oct 2014 (Local Time) from KGYL Reporting Station
Clear Clear  
Wind Chill: 43°   Ceiling: Unl
Heat Index: 47°   Visibility: 10mi
Dew Point: 42°   Wind: 8mph
Humidity: 82%   Direction: 270°W
Pressure: 29.95"   Gusts: NA
Location:  44.68°N, 94.01°W
Report Text: KGYL 201014Z AUTO 27007KT 10SM CLR 09/06 A2995 RMK AO2 T00850056
Loading
Personal Weather Stations






























Interactive Weather Map
Tropical Storm Tracking
New forecast layout! Learn more

10-Day Weather Forecast

Advertisements
Track Severe Weather on mobile